x

Central Aleutians 230nm Sw Dutch Harbor (46072) Wave Buoy

7:50 - Sun 26th Jun 2016 All times are UTC.

  • Sig Wave height 3.0ft
  • Swell Direction
  • Peak Period 16s
  • Average Period 9s
  • Wind
    9mph
  • Sea Temp 49°f
  • Air Temp 43°f
  • Sea Pressure 1022.4mb

More Historic Weather Station data

Upgrade to MSW Pro to gain access to the past 30 days of data for over 8000 Wavebouys and Weather Stations around the globe.

Join Pro

Comparision Forecast

View Surf forecast
   
dim. 06/26 7:50 3ft 16s 9s 9
mph
1022.4mb 49f 43f
6:50 3.5ft 16s 9s 9 11 mph 1022.5mb 49f 42f
5:50 3.5ft 17s 9s 7 11 mph 1022.5mb 49f 42f
4:50 3.5ft 17s 8s 7 9 mph 1022.3mb 49f 42f
3:50 3.5ft 16s 8s 7 9 mph 1022.2mb 49f 42f
2:50 3ft 17s 7s 7 11 mph 1022.4mb 48f 42f
1:50 3.5ft 11s 8s 4 7 mph 1022.6mb 48f 42f
12:50 3ft 11s 8s 7 9 mph 1022.9mb 48f 42f
11:50 3ft 17s 8s 7 11 mph 1023mb 48f 43f
10:50 3ft 17s 8s 7 9 mph 1023.2mb 49f 43f
9:50 2.5ft 17s 8s 7 9 mph 1023.5mb 49f 43f
7:50 2.5ft 17s 8s 4 9 mph 1023.6mb 49f 44f
6:50 3ft 16s 8s 4 9 mph 1023.4mb 49f 44f
5:50 3ft 17s 7s 4 7 mph 1023.4mb 49f 44f
4:50 3.5ft 17s 7s 4 7 mph 1023.2mb 49f 44f
3:50 3.5ft 17s 7s 4 7 mph 1023.4mb 48f 44f
2:50 3.5ft 17s 7s 4 7 mph 1023.5mb 48f 44f
1:50 3.5ft 7s 6s 4 7 mph 1024.1mb 48f 43f
12:50 3.5ft 16s 7s 7 9 mph 1024mb 48f 43f
sam. 06/25 9:50 3.5ft 7s 6s 7 9 mph 1024.6mb 48f 43f
8:50 3.5ft 17s 6s 7 9 mph 1024.5mb 48f 43f
7:50 3.5ft 16s 6s 9 11 mph 1024.4mb 47f 43f
6:50 4ft 16s 6s 9 11 mph 1024.4mb 47f 43f
5:50 4ft 7s 6s 11 16 mph 1024.3mb 47f 42f
4:50 4ft 16s 6s 9 11 mph 1024.6mb 47f 42f
3:50 4.5ft 6s 5s 9 11 mph 1024.4mb 47f 43f
2:50 4.5ft 5s 5s 9 11 mph 1024.5mb 47f 43f
1:50 4.5ft 7s 5s 9 11 mph 1024.6mb 47f 43f
12:50 5ft 7s 6s 9 11 mph 1024.8mb 46f 43f
11:50 5ft 6s 6s 9 11 mph 1024.9mb 45f 42f
10:50 5ft 6s 6s 9 11 mph 1025.1mb 45f 43f
9:50 5.5ft 6s 6s 9 11 mph 1025.2mb 45f 43f
8:50 5ft 6s 6s 9 11 mph 1025.3mb 45f 42f
7:50 5.5ft 9s 6s 11 16 mph 1025mb 45f 43f
6:50 5.5ft 7s 6s 16 18 mph 1024.8mb 45f 44f
5:50 5.5ft 6s 6s 16 20 mph 1024.8mb 45f 44f
4:50 5.5ft 7s 6s 16 20 mph 1024.9mb 45f 45f
3:50 6ft 7s 6s 18 20 mph 1025.1mb 45f 45f
2:50 6ft 7s 6s 16 22 mph 1025.2mb 46f 45f
1:50 6.5ft 6s 6s 18 20 mph 1025.5mb 46f 45f
12:50 6.5ft 7s 6s 18 22 mph 1026mb 46f 45f
ven. 06/24 11:50 6.5ft 7s 6s 20 25 mph 1025.9mb 46f 45f
10:50 6ft 7s 6s 18 20 mph 1026.3mb 46f 45f
9:50 7ft 7s 6s 16 20 mph 1026.8mb 46f 45f
8:50 6.5ft 7s 6s 22 27 mph 1026.5mb 46f 44f
7:50 6ft 7s 6s 20 25 mph 1026.6mb 47f 44f
6:50 6ft 7s 6s 22 27 mph 1026.7mb 47f 44f
5:50 5.5ft 7s 6s 20 22 mph 1026.9mb 47f 44f
4:50 6.5ft 7s 6s 18 20 mph 1027mb 47f 44f
3:50 6ft 7s 6s 20 25 mph 1026.5mb 47f 44f
2:50 7ft 7s 6s 22 27 mph 1026.6mb 47f 44f
1:50 6ft 7s 5s 20 25 mph 1026.8mb 46f 44f
12:50 6.5ft 7s 6s 22 27 mph 1027mb 46f 44f
11:50 6.5ft 7s 6s 20 25 mph 1027.3mb 46f 44f
10:50 7.5ft 7s 6s 20 25 mph 1027.5mb 46f 44f
9:50 7ft 7s 6s 18 22 mph 1027.5mb 45f 45f
8:50 6ft 7s 6s 20 25 mph 1027.5mb 45f 45f
7:50 6.5ft 7s 6s 20 25 mph 1027.4mb 45f 45f
6:50 6ft 8s 6s 25 29 mph 1026.8mb 46f 45f
5:50 6.5ft 7s 6s 20 25 mph 1027.4mb 46f 45f
4:50 7ft 7s 6s 20 22 mph 1027.2mb 46f 45f
3:50 7ft 8s 6s 20 25 mph 1027.5mb 46f 45f
2:50 7ft 8s 6s 18 22 mph 1027.5mb 46f 45f
1:50 7ft 8s 6s 18 22 mph 1027.7mb 46f 45f
12:50 8ft 8s 6s 20 25 mph 1027.3mb 46f 45f
jeu. 06/23 11:50 7.5ft 8s 6s 20 25 mph 1027.5mb 46f 45f
10:50 8ft 8s 6s 20 25 mph 1027.3mb 46f 45f
9:50 7.5ft 8s 6s 18 22 mph 1027mb 46f 45f
8:50 8ft 8s 7s 18 22 mph 1026.5mb 46f 45f
7:50 8ft 8s 7s 18 22 mph 1026.3mb 45f 44f
6:50 8ft 8s 7s 16 20 mph 1025.7mb 45f 44f
5:50 8.5ft 8s 7s 20 22 mph 1025.3mb 45f 44f
4:50 8.5ft 9s 7s 22 25 mph 1025mb 45f 43f
3:50 8ft 9s 7s 18 22 mph 1024.4mb 45f 44f
2:50 8ft 8s 6s 22 27 mph 1023.9mb 46f 44f
1:50 8ft 9s 6s 22 27 mph 1023.5mb 46f 45f
12:50 8ft 8s 6s 18 22 mph 1023.5mb 46f 45f
11:50 9ft 9s 6s 20 25 mph 1023mb 46f 44f
10:50 9ft 9s 6s 22 27 mph 1022.7mb 46f 45f
9:50 9ft 9s 7s 20 25 mph 1022.3mb 46f 45f
7:50 8ft 9s 7s 20 25 mph 1020.8mb 45f 46f
6:50 10ft 10s 7s 18 20 mph 1020.2mb 45f 46f
5:50 9ft 10s 7s 20 27 mph 1019.2mb 45f 46f
4:50 9.5ft 10s 7s 20 25 mph 1018.4mb 46f 46f
3:50 9ft 10s 7s 20 25 mph 1017.8mb 46f 46f
2:50 9ft 10s 7s 20 25 mph 1017.2mb 46f 46f
1:50 10ft 10s 7s 20 27 mph 1016.7mb 46f 46f
12:50 10.5ft 9s 7s 22 27 mph 1016.4mb 46f 46f
mer. 06/22 11:50 11ft 10s 7s 22 29 mph 1016.2mb 46f 46f
10:50 12ft 10s 7s 22 29 mph 1016.5mb 46f 46f
9:50 13ft 10s 8s 25 31 mph 1016.3mb 47f 46f
8:50 13ft 10s 8s 27 34 mph 1015.9mb 47f 46f